Share

Rio Cuarto, Argentina

Area De Material (SAOC) Elev 1381 ft | 33.12 °S, 64.23 °W | Change Station

Current weather conditions updated 51 minutes ago

Overcast
Overcast
61 °F
Feels Like 61 °F
N
15
Wind Variable Wind from SSW
Gusts 28 mph
Sunrise 7:40 AM
Sunset 6:52 PM
Moon Waning Gibbous

Today is forecast to be Much Cooler than yesterday.

Pressure 30.12 in
Visibility 6.2 miles
Clouds Few 2500 ft
Scattered Clouds 10000 ft
Overcast 20000 ft
Dew Point 39 °F
Humidity 45%
Rainfall 0.00 in
Snow Depth Not available.
UV 2 out of 16
Pollen Not available.
Air Quality Not available.
Flu Activity Not available.
METAR SAOC 171700Z 20013G24KT 9999 FEW025 SCT100 OVC200 16/04 Q1020

More Conditions Fewer Conditions

Pressure 30.12 in
Visibility 6.2 miles
Clouds Few 2500 ft
Scattered Clouds 10000 ft
Overcast 20000 ft
Dew Point 39 °F
Humidity 45%
Rainfall 0.00 in
Snow Depth Not available.
UV 2 out of 16
Pollen Not available.
Air Quality Not available.
Flu Activity Not available.
METAR SAOC 171700Z 20013G24KT 9999 FEW025 SCT100 OVC200 16/04 Q1020

More Conditions Fewer Conditions

10-Day Forecast

Almanac

Astronomy

Apr. 17, 2014 Rise Set
Actual Time 7:40 AM ART 6:52 PM ART
Civil Twilight 7:15 AM ART 7:17 PM ART
Nautical Twilight 6:46 AM ART 7:46 PM ART
Astronomical Twilight 6:17 AM ART 8:14 PM ART
Moon 8:44 PM ART 9:52 AM ART
Length of Visible Light 12h 02m
Length of Day
11h 11m
Tomorrow will be 1m 53s shorter.
Waning Gibbous, 93% of the Moon is Illuminated
Today
Waning Gibbous
Apr 22
Last Quarter
Apr 29
New
May 6
First Quarter
May 14
Full

Today's Extremes

Country Highs Country Lows

Community

  • New Day
    New Day
  • Lake Michigan Sunrise
    Lake Michigan Sunrise
  • sunset from izmir, narlıdere
    sunset from izmir, narlıdere
  • oregon cherry
    oregon cherry
  • Sunset over the Bay
    Sunset over the Bay

WunderPhotos

Upload Photos

1,702,075 photos uploaded!

Nearby

Snow Depth

Not available.

Coastal Water Temperatures

Place Temperature
No Stations Reporting

Earthquake Activity

City Distance Mag. Time & Date
No recent earthquake activity has been reported nearby.
Minimum magnitude displayed is 2.5.

Nearby Weather Stations

There are no personal weather stations in this area.

What do you think?

We're not finished. Please let us know what you like, what you don't like, and what you are still missing.